sensor_id;sensor_type;location;lat;lon;timestamp;P1;durP1;ratioP1;P2;durP2;ratioP2
19535;SDS011;9913;51.168;4.124;2023-06-14T00:01:03;9.00;;;7.00;;
19535;SDS011;9913;51.168;4.124;2023-06-14T00:03:32;8.35;;;6.90;;
19535;SDS011;9913;51.168;4.124;2023-06-14T00:06:01;10.63;;;7.10;;
19535;SDS011;9913;51.168;4.124;2023-06-14T00:08:29;7.72;;;6.93;;
19535;SDS011;9913;51.168;4.124;2023-06-14T00:10:59;8.57;;;6.80;;
19535;SDS011;9913;51.168;4.124;2023-06-14T00:13:27;8.88;;;7.47;;
19535;SDS011;9913;51.168;4.124;2023-06-14T00:15:56;11.95;;;6.90;;
19535;SDS011;9913;51.168;4.124;2023-06-14T00:18:24;11.38;;;7.43;;
19535;SDS011;9913;51.168;4.124;2023-06-14T00:20:56;9.65;;;7.25;;
19535;SDS011;9913;51.168;4.124;2023-06-14T00:23:25;9.52;;;6.95;;
19535;SDS011;9913;51.168;4.124;2023-06-14T00:25:53;10.25;;;7.50;;
19535;SDS011;9913;51.168;4.124;2023-06-14T00:28:22;10.55;;;7.63;;
19535;SDS011;9913;51.168;4.124;2023-06-14T00:30:51;9.38;;;7.10;;
19535;SDS011;9913;51.168;4.124;2023-06-14T00:33:20;12.27;;;8.40;;
19535;SDS011;9913;51.168;4.124;2023-06-14T00:35:48;10.10;;;7.75;;
19535;SDS011;9913;51.168;4.124;2023-06-14T00:38:19;10.63;;;7.20;;
19535;SDS011;9913;51.168;4.124;2023-06-14T00:40:48;9.27;;;7.97;;
19535;SDS011;9913;51.168;4.124;2023-06-14T00:43:16;10.30;;;8.20;;
19535;SDS011;9913;51.168;4.124;2023-06-14T00:45:46;9.55;;;7.60;;
19535;SDS011;9913;51.168;4.124;2023-06-14T00:48:16;12.73;;;8.63;;
19535;SDS011;9913;51.168;4.124;2023-06-14T00:50:45;10.27;;;8.35;;
19535;SDS011;9913;51.168;4.124;2023-06-14T00:53:15;12.38;;;8.05;;
19535;SDS011;9913;51.168;4.124;2023-06-14T00:55:44;9.68;;;8.07;;
19535;SDS011;9913;51.168;4.124;2023-06-14T00:58:15;9.35;;;7.55;;
19535;SDS011;9913;51.168;4.124;2023-06-14T01:00:46;9.30;;;7.60;;
19535;SDS011;9913;51.168;4.124;2023-06-14T01:03:15;11.05;;;7.72;;
19535;SDS011;9913;51.168;4.124;2023-06-14T01:05:46;10.57;;;7.60;;
19535;SDS011;9913;51.168;4.124;2023-06-14T01:08:19;9.25;;;8.05;;
19535;SDS011;9913;51.168;4.124;2023-06-14T01:10:56;10.07;;;8.40;;
19535;SDS011;9913;51.168;4.124;2023-06-14T01:13:32;8.30;;;7.22;;
19535;SDS011;9913;51.168;4.124;2023-06-14T01:16:03;12.15;;;7.75;;
19535;SDS011;9913;51.168;4.124;2023-06-14T01:18:34;11.48;;;7.68;;
19535;SDS011;9913;51.168;4.124;2023-06-14T01:21:04;9.63;;;7.75;;
19535;SDS011;9913;51.168;4.124;2023-06-14T01:23:34;8.80;;;6.60;;
19535;SDS011;9913;51.168;4.124;2023-06-14T01:26:02;9.10;;;6.90;;
19535;SDS011;9913;51.168;4.124;2023-06-14T01:28:31;11.55;;;7.25;;
19535;SDS011;9913;51.168;4.124;2023-06-14T01:31:01;10.40;;;7.50;;
19535;SDS011;9913;51.168;4.124;2023-06-14T01:33:32;9.23;;;7.18;;
19535;SDS011;9913;51.168;4.124;2023-06-14T01:36:03;9.55;;;7.57;;
19535;SDS011;9913;51.168;4.124;2023-06-14T01:38:36;9.57;;;6.65;;
19535;SDS011;9913;51.168;4.124;2023-06-14T01:41:05;9.55;;;7.18;;
19535;SDS011;9913;51.168;4.124;2023-06-14T01:43:34;10.52;;;6.47;;
19535;SDS011;9913;51.168;4.124;2023-06-14T01:46:04;10.68;;;7.15;;
19535;SDS011;9913;51.168;4.124;2023-06-14T01:48:34;8.50;;;6.93;;
19535;SDS011;9913;51.168;4.124;2023-06-14T01:51:03;9.52;;;7.15;;
19535;SDS011;9913;51.168;4.124;2023-06-14T01:53:31;8.75;;;6.68;;
19535;SDS011;9913;51.168;4.124;2023-06-14T01:56:01;9.50;;;6.30;;
19535;SDS011;9913;51.168;4.124;2023-06-14T01:58:30;8.07;;;6.60;;
19535;SDS011;9913;51.168;4.124;2023-06-14T02:01:00;10.90;;;6.95;;
19535;SDS011;9913;51.168;4.124;2023-06-14T02:03:29;10.07;;;7.72;;
19535;SDS011;9913;51.168;4.124;2023-06-14T02:05:57;9.00;;;7.43;;
19535;SDS011;9913;51.168;4.124;2023-06-14T02:08:26;11.43;;;8.02;;
19535;SDS011;9913;51.168;4.124;2023-06-14T02:10:55;8.27;;;7.10;;
19535;SDS011;9913;51.168;4.124;2023-06-14T02:13:25;9.15;;;7.70;;
19535;SDS011;9913;51.168;4.124;2023-06-14T02:15:53;9.55;;;7.28;;
19535;SDS011;9913;51.168;4.124;2023-06-14T02:18:22;12.32;;;7.20;;
19535;SDS011;9913;51.168;4.124;2023-06-14T02:20:50;8.60;;;6.63;;
19535;SDS011;9913;51.168;4.124;2023-06-14T02:23:19;10.57;;;7.10;;
19535;SDS011;9913;51.168;4.124;2023-06-14T02:25:47;9.63;;;7.00;;
19535;SDS011;9913;51.168;4.124;2023-06-14T02:28:16;8.07;;;6.63;;
19535;SDS011;9913;51.168;4.124;2023-06-14T02:30:46;10.90;;;6.95;;
19535;SDS011;9913;51.168;4.124;2023-06-14T02:33:14;9.38;;;6.82;;
19535;SDS011;9913;51.168;4.124;2023-06-14T02:35:44;7.57;;;6.50;;
19535;SDS011;9913;51.168;4.124;2023-06-14T02:38:12;11.38;;;6.93;;
19535;SDS011;9913;51.168;4.124;2023-06-14T02:40:41;8.85;;;7.32;;
19535;SDS011;9913;51.168;4.124;2023-06-14T02:43:10;7.90;;;5.90;;
19535;SDS011;9913;51.168;4.124;2023-06-14T02:45:38;11.45;;;7.40;;
19535;SDS011;9913;51.168;4.124;2023-06-14T02:48:08;7.40;;;6.15;;
19535;SDS011;9913;51.168;4.124;2023-06-14T02:50:40;7.88;;;6.03;;
19535;SDS011;9913;51.168;4.124;2023-06-14T02:53:08;8.35;;;5.93;;
19535;SDS011;9913;51.168;4.124;2023-06-14T02:55:37;8.20;;;6.05;;
19535;SDS011;9913;51.168;4.124;2023-06-14T02:58:07;8.85;;;6.53;;
19535;SDS011;9913;51.168;4.124;2023-06-14T03:00:37;7.43;;;5.93;;
19535;SDS011;9913;51.168;4.124;2023-06-14T03:03:06;8.00;;;6.35;;
19535;SDS011;9913;51.168;4.124;2023-06-14T03:05:44;8.68;;;5.90;;
19535;SDS011;9913;51.168;4.124;2023-06-14T03:08:16;7.05;;;5.85;;
19535;SDS011;9913;51.168;4.124;2023-06-14T03:10:50;7.68;;;6.13;;
19535;SDS011;9913;51.168;4.124;2023-06-14T03:13:18;6.95;;;5.90;;
19535;SDS011;9913;51.168;4.124;2023-06-14T03:15:48;7.93;;;6.25;;
19535;SDS011;9913;51.168;4.124;2023-06-14T03:18:20;7.68;;;5.75;;
19535;SDS011;9913;51.168;4.124;2023-06-14T03:20:55;7.95;;;5.47;;
19535;SDS011;9913;51.168;4.124;2023-06-14T03:23:27;8.85;;;6.13;;
19535;SDS011;9913;51.168;4.124;2023-06-14T03:25:55;7.65;;;5.47;;
19535;SDS011;9913;51.168;4.124;2023-06-14T03:28:24;8.25;;;6.07;;
19535;SDS011;9913;51.168;4.124;2023-06-14T03:30:54;8.45;;;5.88;;
19535;SDS011;9913;51.168;4.124;2023-06-14T03:33:24;7.82;;;5.50;;
19535;SDS011;9913;51.168;4.124;2023-06-14T03:35:55;9.27;;;6.28;;
19535;SDS011;9913;51.168;4.124;2023-06-14T03:38:25;7.28;;;5.47;;
19535;SDS011;9913;51.168;4.124;2023-06-14T03:40:54;9.50;;;6.22;;
19535;SDS011;9913;51.168;4.124;2023-06-14T03:43:22;10.65;;;6.32;;
19535;SDS011;9913;51.168;4.124;2023-06-14T03:45:53;8.02;;;5.80;;
19535;SDS011;9913;51.168;4.124;2023-06-14T03:48:22;8.43;;;5.78;;
19535;SDS011;9913;51.168;4.124;2023-06-14T03:50:52;11.27;;;6.40;;
19535;SDS011;9913;51.168;4.124;2023-06-14T03:53:27;11.02;;;6.45;;
19535;SDS011;9913;51.168;4.124;2023-06-14T03:55:57;10.68;;;6.38;;
19535;SDS011;9913;51.168;4.124;2023-06-14T03:58:36;8.80;;;6.00;;
19535;SDS011;9913;51.168;4.124;2023-06-14T04:01:05;10.52;;;6.05;;
19535;SDS011;9913;51.168;4.124;2023-06-14T04:03:34;8.40;;;6.30;;
19535;SDS011;9913;51.168;4.124;2023-06-14T04:06:03;7.88;;;5.82;;
19535;SDS011;9913;51.168;4.124;2023-06-14T04:08:33;8.32;;;5.72;;
19535;SDS011;9913;51.168;4.124;2023-06-14T04:11:02;9.23;;;6.07;;
19535;SDS011;9913;51.168;4.124;2023-06-14T04:13:30;6.85;;;5.10;;
19535;SDS011;9913;51.168;4.124;2023-06-14T04:16:02;7.72;;;5.72;;
19535;SDS011;9913;51.168;4.124;2023-06-14T04:18:34;6.07;;;5.32;;
19535;SDS011;9913;51.168;4.124;2023-06-14T04:21:02;8.25;;;5.60;;
19535;SDS011;9913;51.168;4.124;2023-06-14T04:23:31;6.82;;;5.40;;
19535;SDS011;9913;51.168;4.124;2023-06-14T04:26:02;6.13;;;5.07;;
19535;SDS011;9913;51.168;4.124;2023-06-14T04:28:31;6.20;;;5.18;;
19535;SDS011;9913;51.168;4.124;2023-06-14T04:31:09;9.57;;;5.55;;
19535;SDS011;9913;51.168;4.124;2023-06-14T04:33:38;8.63;;;6.43;;
19535;SDS011;9913;51.168;4.124;2023-06-14T04:36:14;7.72;;;5.70;;
19535;SDS011;9913;51.168;4.124;2023-06-14T04:38:46;7.00;;;5.28;;
19535;SDS011;9913;51.168;4.124;2023-06-14T04:41:17;11.10;;;5.20;;
19535;SDS011;9913;51.168;4.124;2023-06-14T04:43:46;7.10;;;5.53;;
19535;SDS011;9913;51.168;4.124;2023-06-14T04:46:15;7.63;;;6.15;;
19535;SDS011;9913;51.168;4.124;2023-06-14T04:48:45;8.23;;;5.93;;
19535;SDS011;9913;51.168;4.124;2023-06-14T04:51:15;8.38;;;5.68;;
19535;SDS011;9913;51.168;4.124;2023-06-14T04:53:48;9.95;;;6.20;;
19535;SDS011;9913;51.168;4.124;2023-06-14T04:56:18;8.55;;;6.38;;
19535;SDS011;9913;51.168;4.124;2023-06-14T04:58:49;9.20;;;6.40;;
19535;SDS011;9913;51.168;4.124;2023-06-14T05:01:18;8.18;;;6.38;;
19535;SDS011;9913;51.168;4.124;2023-06-14T05:03:48;8.38;;;6.15;;
19535;SDS011;9913;51.168;4.124;2023-06-14T05:06:17;11.15;;;5.95;;
19535;SDS011;9913;51.168;4.124;2023-06-14T05:08:46;10.82;;;6.43;;
19535;SDS011;9913;51.168;4.124;2023-06-14T05:11:14;8.25;;;6.90;;
19535;SDS011;9913;51.168;4.124;2023-06-14T05:13:45;13.20;;;6.95;;
19535;SDS011;9913;51.168;4.124;2023-06-14T05:16:13;10.00;;;7.00;;
19535;SDS011;9913;51.168;4.124;2023-06-14T05:18:45;12.95;;;7.30;;
19535;SDS011;9913;51.168;4.124;2023-06-14T05:21:14;8.32;;;6.63;;
19535;SDS011;9913;51.168;4.124;2023-06-14T05:23:44;10.18;;;7.45;;
19535;SDS011;9913;51.168;4.124;2023-06-14T05:26:13;11.20;;;7.10;;
19535;SDS011;9913;51.168;4.124;2023-06-14T05:28:41;10.25;;;7.05;;
19535;SDS011;9913;51.168;4.124;2023-06-14T05:31:11;11.55;;;6.75;;
19535;SDS011;9913;51.168;4.124;2023-06-14T05:33:39;9.60;;;6.38;;
19535;SDS011;9913;51.168;4.124;2023-06-14T05:36:08;9.18;;;6.68;;
19535;SDS011;9913;51.168;4.124;2023-06-14T05:38:37;9.60;;;6.90;;
19535;SDS011;9913;51.168;4.124;2023-06-14T05:41:05;11.70;;;6.40;;
19535;SDS011;9913;51.168;4.124;2023-06-14T05:43:33;10.00;;;7.05;;
19535;SDS011;9913;51.168;4.124;2023-06-14T05:46:02;10.77;;;6.47;;
19535;SDS011;9913;51.168;4.124;2023-06-14T05:48:31;10.90;;;7.38;;
19535;SDS011;9913;51.168;4.124;2023-06-14T05:51:00;12.82;;;7.55;;
19535;SDS011;9913;51.168;4.124;2023-06-14T05:53:28;13.80;;;7.28;;
19535;SDS011;9913;51.168;4.124;2023-06-14T05:55:57;11.30;;;7.38;;
19535;SDS011;9913;51.168;4.124;2023-06-14T05:58:25;10.68;;;6.95;;
19535;SDS011;9913;51.168;4.124;2023-06-14T06:00:53;11.52;;;7.28;;
19535;SDS011;9913;51.168;4.124;2023-06-14T06:03:22;14.18;;;7.50;;
19535;SDS011;9913;51.168;4.124;2023-06-14T06:05:52;10.18;;;6.90;;
19535;SDS011;9913;51.168;4.124;2023-06-14T06:08:20;13.23;;;7.03;;
19535;SDS011;9913;51.168;4.124;2023-06-14T06:10:49;12.20;;;7.13;;
19535;SDS011;9913;51.168;4.124;2023-06-14T06:13:17;10.70;;;6.57;;
19535;SDS011;9913;51.168;4.124;2023-06-14T06:15:46;11.90;;;7.22;;
19535;SDS011;9913;51.168;4.124;2023-06-14T06:18:14;11.85;;;7.15;;
19535;SDS011;9913;51.168;4.124;2023-06-14T06:20:43;14.02;;;7.45;;
19535;SDS011;9913;51.168;4.124;2023-06-14T06:23:13;12.60;;;7.13;;
19535;SDS011;9913;51.168;4.124;2023-06-14T06:25:42;10.45;;;6.95;;
19535;SDS011;9913;51.168;4.124;2023-06-14T06:28:10;10.55;;;7.43;;
19535;SDS011;9913;51.168;4.124;2023-06-14T06:30:39;13.75;;;8.27;;
19535;SDS011;9913;51.168;4.124;2023-06-14T06:33:07;9.73;;;6.95;;
19535;SDS011;9913;51.168;4.124;2023-06-14T06:35:36;12.68;;;7.30;;
19535;SDS011;9913;51.168;4.124;2023-06-14T06:38:04;13.60;;;7.65;;
19535;SDS011;9913;51.168;4.124;2023-06-14T06:40:34;14.27;;;7.43;;
19535;SDS011;9913;51.168;4.124;2023-06-14T06:43:02;12.15;;;7.90;;
19535;SDS011;9913;51.168;4.124;2023-06-14T06:45:38;12.80;;;7.13;;
19535;SDS011;9913;51.168;4.124;2023-06-14T06:48:07;12.35;;;7.53;;
19535;SDS011;9913;51.168;4.124;2023-06-14T06:50:37;13.65;;;8.07;;
19535;SDS011;9913;51.168;4.124;2023-06-14T06:53:05;10.77;;;7.18;;
19535;SDS011;9913;51.168;4.124;2023-06-14T06:55:36;13.40;;;7.80;;
19535;SDS011;9913;51.168;4.124;2023-06-14T06:58:04;10.20;;;7.18;;
19535;SDS011;9913;51.168;4.124;2023-06-14T07:00:33;10.63;;;7.82;;
19535;SDS011;9913;51.168;4.124;2023-06-14T07:03:01;9.77;;;7.18;;
19535;SDS011;9913;51.168;4.124;2023-06-14T07:05:30;11.55;;;7.28;;
19535;SDS011;9913;51.168;4.124;2023-06-14T07:07:59;12.60;;;7.68;;
19535;SDS011;9913;51.168;4.124;2023-06-14T07:10:28;14.73;;;7.90;;
19535;SDS011;9913;51.168;4.124;2023-06-14T07:12:58;9.75;;;6.90;;
19535;SDS011;9913;51.168;4.124;2023-06-14T07:15:26;11.45;;;7.07;;
19535;SDS011;9913;51.168;4.124;2023-06-14T07:17:54;10.73;;;7.00;;
19535;SDS011;9913;51.168;4.124;2023-06-14T07:20:26;10.35;;;6.75;;
19535;SDS011;9913;51.168;4.124;2023-06-14T07:22:55;10.65;;;6.72;;
19535;SDS011;9913;51.168;4.124;2023-06-14T07:25:23;11.88;;;6.60;;
19535;SDS011;9913;51.168;4.124;2023-06-14T07:27:52;14.60;;;7.65;;
19535;SDS011;9913;51.168;4.124;2023-06-14T07:30:21;12.07;;;7.55;;
19535;SDS011;9913;51.168;4.124;2023-06-14T07:32:52;10.80;;;6.97;;
19535;SDS011;9913;51.168;4.124;2023-06-14T07:35:21;14.75;;;7.10;;
19535;SDS011;9913;51.168;4.124;2023-06-14T07:37:49;13.20;;;7.45;;
19535;SDS011;9913;51.168;4.124;2023-06-14T07:40:18;13.82;;;6.93;;
19535;SDS011;9913;51.168;4.124;2023-06-14T07:42:46;12.20;;;7.93;;
19535;SDS011;9913;51.168;4.124;2023-06-14T07:45:16;14.63;;;8.10;;
19535;SDS011;9913;51.168;4.124;2023-06-14T07:47:46;13.52;;;8.73;;
19535;SDS011;9913;51.168;4.124;2023-06-14T07:50:15;15.38;;;8.70;;
19535;SDS011;9913;51.168;4.124;2023-06-14T07:52:43;16.10;;;8.73;;
19535;SDS011;9913;51.168;4.124;2023-06-14T07:55:13;12.23;;;8.40;;
19535;SDS011;9913;51.168;4.124;2023-06-14T07:57:43;14.98;;;8.25;;
19535;SDS011;9913;51.168;4.124;2023-06-14T08:00:12;15.32;;;8.60;;
19535;SDS011;9913;51.168;4.124;2023-06-14T08:02:43;13.35;;;9.75;;
19535;SDS011;9913;51.168;4.124;2023-06-14T08:05:14;13.27;;;8.73;;
19535;SDS011;9913;51.168;4.124;2023-06-14T08:07:42;12.57;;;8.38;;
19535;SDS011;9913;51.168;4.124;2023-06-14T08:10:22;13.13;;;8.43;;
19535;SDS011;9913;51.168;4.124;2023-06-14T08:12:50;14.93;;;9.65;;
19535;SDS011;9913;51.168;4.124;2023-06-14T08:15:18;12.10;;;8.32;;
19535;SDS011;9913;51.168;4.124;2023-06-14T08:17:47;16.92;;;9.52;;
19535;SDS011;9913;51.168;4.124;2023-06-14T08:20:18;13.13;;;10.38;;
19535;SDS011;9913;51.168;4.124;2023-06-14T08:22:46;13.07;;;8.60;;
19535;SDS011;9913;51.168;4.124;2023-06-14T08:25:15;11.90;;;8.80;;
19535;SDS011;9913;51.168;4.124;2023-06-14T08:27:44;14.40;;;8.88;;
19535;SDS011;9913;51.168;4.124;2023-06-14T08:30:12;8.60;;;7.72;;
19535;SDS011;9913;51.168;4.124;2023-06-14T08:32:41;10.45;;;7.25;;
19535;SDS011;9913;51.168;4.124;2023-06-14T08:35:10;13.07;;;8.35;;
19535;SDS011;9913;51.168;4.124;2023-06-14T08:37:43;11.07;;;7.78;;
19535;SDS011;9913;51.168;4.124;2023-06-14T08:40:16;11.50;;;7.95;;
19535;SDS011;9913;51.168;4.124;2023-06-14T08:42:48;9.75;;;7.35;;
19535;SDS011;9913;51.168;4.124;2023-06-14T08:45:19;11.18;;;6.80;;
19535;SDS011;9913;51.168;4.124;2023-06-14T08:47:53;8.48;;;7.07;;
19535;SDS011;9913;51.168;4.124;2023-06-14T08:50:25;11.45;;;8.20;;
19535;SDS011;9913;51.168;4.124;2023-06-14T08:53:00;11.32;;;7.47;;
19535;SDS011;9913;51.168;4.124;2023-06-14T08:55:31;10.95;;;7.07;;
19535;SDS011;9913;51.168;4.124;2023-06-14T08:58:06;11.07;;;7.80;;
19535;SDS011;9913;51.168;4.124;2023-06-14T09:00:36;10.93;;;8.02;;
19535;SDS011;9913;51.168;4.124;2023-06-14T09:03:05;9.23;;;7.88;;
19535;SDS011;9913;51.168;4.124;2023-06-14T09:05:41;11.85;;;8.45;;
19535;SDS011;9913;51.168;4.124;2023-06-14T09:08:12;8.25;;;7.10;;
19535;SDS011;9913;51.168;4.124;2023-06-14T09:10:40;8.80;;;7.65;;
19535;SDS011;9913;51.168;4.124;2023-06-14T09:13:09;9.93;;;7.63;;
19535;SDS011;9913;51.168;4.124;2023-06-14T09:15:40;11.40;;;8.15;;
19535;SDS011;9913;51.168;4.124;2023-06-14T09:18:11;10.55;;;7.72;;
19535;SDS011;9913;51.168;4.124;2023-06-14T09:20:39;8.27;;;7.07;;
19535;SDS011;9913;51.168;4.124;2023-06-14T09:23:08;12.63;;;7.25;;
19535;SDS011;9913;51.168;4.124;2023-06-14T09:25:45;10.82;;;7.30;;
19535;SDS011;9913;51.168;4.124;2023-06-14T09:28:16;11.02;;;7.63;;
19535;SDS011;9913;51.168;4.124;2023-06-14T09:30:44;11.07;;;6.55;;
19535;SDS011;9913;51.168;4.124;2023-06-14T09:33:16;10.23;;;6.63;;
19535;SDS011;9913;51.168;4.124;2023-06-14T09:35:45;11.07;;;7.43;;
19535;SDS011;9913;51.168;4.124;2023-06-14T09:38:15;9.23;;;6.97;;
19535;SDS011;9913;51.168;4.124;2023-06-14T09:40:44;10.55;;;6.90;;
19535;SDS011;9913;51.168;4.124;2023-06-14T09:43:13;9.20;;;7.40;;
19535;SDS011;9913;51.168;4.124;2023-06-14T09:45:41;9.13;;;6.35;;
19535;SDS011;9913;51.168;4.124;2023-06-14T09:48:17;10.43;;;6.63;;
19535;SDS011;9913;51.168;4.124;2023-06-14T09:50:46;10.70;;;6.45;;
19535;SDS011;9913;51.168;4.124;2023-06-14T09:53:20;10.32;;;7.00;;
19535;SDS011;9913;51.168;4.124;2023-06-14T09:55:52;7.63;;;5.70;;
19535;SDS011;9913;51.168;4.124;2023-06-14T09:58:23;9.50;;;6.07;;
19535;SDS011;9913;51.168;4.124;2023-06-14T10:00:57;8.85;;;5.70;;
19535;SDS011;9913;51.168;4.124;2023-06-14T10:03:28;7.82;;;6.40;;
19535;SDS011;9913;51.168;4.124;2023-06-14T10:06:09;10.70;;;6.22;;
19535;SDS011;9913;51.168;4.124;2023-06-14T10:08:41;14.88;;;5.88;;
19535;SDS011;9913;51.168;4.124;2023-06-14T10:11:16;11.13;;;5.75;;
19535;SDS011;9913;51.168;4.124;2023-06-14T10:13:45;7.68;;;5.75;;
19535;SDS011;9913;51.168;4.124;2023-06-14T10:16:15;7.78;;;5.80;;
19535;SDS011;9913;51.168;4.124;2023-06-14T10:18:49;7.93;;;5.80;;
19535;SDS011;9913;51.168;4.124;2023-06-14T10:21:21;7.25;;;5.32;;
19535;SDS011;9913;51.168;4.124;2023-06-14T10:24:10;9.18;;;5.30;;
19535;SDS011;9913;51.168;4.124;2023-06-14T10:26:53;8.35;;;5.18;;
19535;SDS011;9913;51.168;4.124;2023-06-14T10:29:26;8.75;;;5.38;;
19535;SDS011;9913;51.168;4.124;2023-06-14T10:31:59;8.50;;;5.32;;
19535;SDS011;9913;51.168;4.124;2023-06-14T10:34:30;5.82;;;5.03;;
19535;SDS011;9913;51.168;4.124;2023-06-14T10:37:03;5.65;;;5.05;;
19535;SDS011;9913;51.168;4.124;2023-06-14T10:39:37;9.10;;;5.63;;
19535;SDS011;9913;51.168;4.124;2023-06-14T10:42:12;8.68;;;5.85;;
19535;SDS011;9913;51.168;4.124;2023-06-14T10:44:45;6.78;;;5.30;;
19535;SDS011;9913;51.168;4.124;2023-06-14T10:47:21;6.50;;;5.07;;
19535;SDS011;9913;51.168;4.124;2023-06-14T10:49:57;8.27;;;5.97;;
19535;SDS011;9913;51.168;4.124;2023-06-14T10:52:32;8.13;;;6.00;;
19535;SDS011;9913;51.168;4.124;2023-06-14T10:55:06;8.13;;;4.93;;
19535;SDS011;9913;51.168;4.124;2023-06-14T10:57:42;8.10;;;5.78;;
19535;SDS011;9913;51.168;4.124;2023-06-14T11:00:18;7.47;;;5.15;;
19535;SDS011;9913;51.168;4.124;2023-06-14T11:05:53;7.65;;;5.57;;
19535;SDS011;9913;51.168;4.124;2023-06-14T11:11:33;6.60;;;5.30;;
19535;SDS011;9913;51.168;4.124;2023-06-14T11:14:04;6.88;;;4.93;;
19535;SDS011;9913;51.168;4.124;2023-06-14T11:16:33;11.40;;;5.03;;
19535;SDS011;9913;51.168;4.124;2023-06-14T11:19:01;9.63;;;4.70;;
19535;SDS011;9913;51.168;4.124;2023-06-14T11:21:31;7.13;;;4.70;;
19535;SDS011;9913;51.168;4.124;2023-06-14T11:24:00;7.05;;;5.00;;
19535;SDS011;9913;51.168;4.124;2023-06-14T11:26:29;8.13;;;4.82;;
19535;SDS011;9913;51.168;4.124;2023-06-14T11:29:01;6.68;;;4.38;;
19535;SDS011;9913;51.168;4.124;2023-06-14T11:31:31;6.80;;;4.45;;
19535;SDS011;9913;51.168;4.124;2023-06-14T11:34:00;6.45;;;4.38;;
19535;SDS011;9913;51.168;4.124;2023-06-14T11:36:31;5.88;;;4.85;;
19535;SDS011;9913;51.168;4.124;2023-06-14T11:39:02;6.50;;;4.50;;
19535;SDS011;9913;51.168;4.124;2023-06-14T11:41:34;8.10;;;4.63;;
19535;SDS011;9913;51.168;4.124;2023-06-14T11:44:05;6.05;;;4.53;;
19535;SDS011;9913;51.168;4.124;2023-06-14T11:46:35;7.90;;;4.75;;
19535;SDS011;9913;51.168;4.124;2023-06-14T11:49:04;5.90;;;4.60;;
19535;SDS011;9913;51.168;4.124;2023-06-14T11:51:36;6.63;;;4.88;;
19535;SDS011;9913;51.168;4.124;2023-06-14T11:54:04;8.38;;;4.50;;
19535;SDS011;9913;51.168;4.124;2023-06-14T11:56:34;5.57;;;4.60;;
19535;SDS011;9913;51.168;4.124;2023-06-14T11:59:04;8.23;;;4.57;;
19535;SDS011;9913;51.168;4.124;2023-06-14T12:01:38;7.03;;;5.00;;
19535;SDS011;9913;51.168;4.124;2023-06-14T12:04:07;6.75;;;5.20;;
19535;SDS011;9913;51.168;4.124;2023-06-14T12:06:35;8.75;;;4.57;;
19535;SDS011;9913;51.168;4.124;2023-06-14T12:09:07;11.23;;;5.15;;
19535;SDS011;9913;51.168;4.124;2023-06-14T12:11:40;6.63;;;4.70;;
19535;SDS011;9913;51.168;4.124;2023-06-14T12:14:09;6.10;;;4.35;;
19535;SDS011;9913;51.168;4.124;2023-06-14T12:16:39;6.93;;;4.68;;
19535;SDS011;9913;51.168;4.124;2023-06-14T12:19:09;7.63;;;4.63;;
19535;SDS011;9913;51.168;4.124;2023-06-14T12:21:41;7.45;;;5.20;;
19535;SDS011;9913;51.168;4.124;2023-06-14T12:24:11;6.60;;;5.20;;
19535;SDS011;9913;51.168;4.124;2023-06-14T12:26:41;8.38;;;6.80;;
19535;SDS011;9913;51.168;4.124;2023-06-14T12:29:09;9.10;;;5.30;;
19535;SDS011;9913;51.168;4.124;2023-06-14T12:31:41;8.13;;;4.50;;
19535;SDS011;9913;51.168;4.124;2023-06-14T12:34:09;8.70;;;4.53;;
19535;SDS011;9913;51.168;4.124;2023-06-14T12:36:38;6.75;;;4.38;;
19535;SDS011;9913;51.168;4.124;2023-06-14T12:39:11;8.10;;;4.13;;
19535;SDS011;9913;51.168;4.124;2023-06-14T12:41:40;8.60;;;4.65;;
19535;SDS011;9913;51.168;4.124;2023-06-14T12:44:09;6.97;;;4.25;;
19535;SDS011;9913;51.168;4.124;2023-06-14T12:46:38;7.70;;;4.45;;
19535;SDS011;9913;51.168;4.124;2023-06-14T12:49:10;11.18;;;4.80;;
19535;SDS011;9913;51.168;4.124;2023-06-14T12:51:39;7.80;;;5.72;;
19535;SDS011;9913;51.168;4.124;2023-06-14T12:54:07;6.97;;;4.10;;
19535;SDS011;9913;51.168;4.124;2023-06-14T12:56:36;6.18;;;4.95;;
19535;SDS011;9913;51.168;4.124;2023-06-14T12:59:05;8.20;;;4.47;;
19535;SDS011;9913;51.168;4.124;2023-06-14T13:01:34;11.73;;;10.57;;
19535;SDS011;9913;51.168;4.124;2023-06-14T13:04:02;7.30;;;5.25;;
19535;SDS011;9913;51.168;4.124;2023-06-14T13:06:32;7.32;;;4.35;;
19535;SDS011;9913;51.168;4.124;2023-06-14T13:09:01;5.97;;;3.97;;
19535;SDS011;9913;51.168;4.124;2023-06-14T13:11:30;8.60;;;7.78;;
19535;SDS011;9913;51.168;4.124;2023-06-14T13:13:58;59.22;;;56.28;;
19535;SDS011;9913;51.168;4.124;2023-06-14T13:16:43;13.43;;;12.27;;
19535;SDS011;9913;51.168;4.124;2023-06-14T13:19:11;63.47;;;60.08;;
19535;SDS011;9913;51.168;4.124;2023-06-14T13:21:41;186.70;;;179.32;;
19535;SDS011;9913;51.168;4.124;2023-06-14T13:24:09;40.00;;;37.85;;
19535;SDS011;9913;51.168;4.124;2023-06-14T13:26:38;153.07;;;146.07;;
19535;SDS011;9913;51.168;4.124;2023-06-14T13:29:06;284.58;;;271.77;;
19535;SDS011;9913;51.168;4.124;2023-06-14T13:31:35;265.33;;;254.82;;
19535;SDS011;9913;51.168;4.124;2023-06-14T13:34:03;241.18;;;231.65;;
19535;SDS011;9913;51.168;4.124;2023-06-14T13:36:32;281.35;;;268.25;;
19535;SDS011;9913;51.168;4.124;2023-06-14T13:39:02;116.38;;;111.45;;
19535;SDS011;9913;51.168;4.124;2023-06-14T13:41:30;179.77;;;172.73;;
19535;SDS011;9913;51.168;4.124;2023-06-14T13:44:01;254.77;;;244.27;;
19535;SDS011;9913;51.168;4.124;2023-06-14T13:46:31;181.68;;;173.43;;
19535;SDS011;9913;51.168;4.124;2023-06-14T13:48:59;204.02;;;194.70;;
19535;SDS011;9913;51.168;4.124;2023-06-14T13:51:28;207.82;;;198.32;;
19535;SDS011;9913;51.168;4.124;2023-06-14T13:53:57;292.63;;;277.40;;
19535;SDS011;9913;51.168;4.124;2023-06-14T13:56:26;305.00;;;289.60;;
19535;SDS011;9913;51.168;4.124;2023-06-14T13:58:55;344.63;;;327.00;;
19535;SDS011;9913;51.168;4.124;2023-06-14T14:01:23;558.45;;;524.65;;
19535;SDS011;9913;51.168;4.124;2023-06-14T14:03:53;810.97;;;759.63;;
19535;SDS011;9913;51.168;4.124;2023-06-14T14:06:21;769.03;;;719.20;;
19535;SDS011;9913;51.168;4.124;2023-06-14T14:08:50;767.75;;;718.22;;
19535;SDS011;9913;51.168;4.124;2023-06-14T14:11:19;745.40;;;696.92;;
19535;SDS011;9913;51.168;4.124;2023-06-14T14:13:49;733.72;;;686.60;;
19535;SDS011;9913;51.168;4.124;2023-06-14T14:16:17;798.47;;;741.28;;
19535;SDS011;9913;51.168;4.124;2023-06-14T14:18:46;788.28;;;737.95;;
19535;SDS011;9913;51.168;4.124;2023-06-14T14:21:14;906.60;;;831.85;;
19535;SDS011;9913;51.168;4.124;2023-06-14T14:23:43;933.40;;;846.53;;
19535;SDS011;9913;51.168;4.124;2023-06-14T14:26:12;1167.43;;;994.05;;
19535;SDS011;9913;51.168;4.124;2023-06-14T14:28:40;1150.25;;;999.90;;
19535;SDS011;9913;51.168;4.124;2023-06-14T14:31:10;1138.60;;;999.90;;
19535;SDS011;9913;51.168;4.124;2023-06-14T14:33:38;725.97;;;650.42;;
19535;SDS011;9913;51.168;4.124;2023-06-14T14:36:06;593.05;;;540.90;;
19535;SDS011;9913;51.168;4.124;2023-06-14T14:38:35;172.75;;;146.70;;
19535;SDS011;9913;51.168;4.124;2023-06-14T14:41:03;170.60;;;134.30;;
19535;SDS011;9913;51.168;4.124;2023-06-14T14:43:31;294.67;;;132.98;;
19535;SDS011;9913;51.168;4.124;2023-06-14T14:46:00;156.85;;;101.05;;
19535;SDS011;9913;51.168;4.124;2023-06-14T14:48:29;48.67;;;17.27;;
19535;SDS011;9913;51.168;4.124;2023-06-14T14:50:58;125.50;;;41.50;;
19535;SDS011;9913;51.168;4.124;2023-06-14T14:53:26;219.80;;;40.42;;
19535;SDS011;9913;51.168;4.124;2023-06-14T14:55:55;131.95;;;112.82;;
19535;SDS011;9913;51.168;4.124;2023-06-14T14:58:23;25.63;;;14.07;;
19535;SDS011;9913;51.168;4.124;2023-06-14T15:00:51;11.18;;;3.67;;
19535;SDS011;9913;51.168;4.124;2023-06-14T15:03:20;3.05;;;1.90;;
19535;SDS011;9913;51.168;4.124;2023-06-14T15:05:49;11.52;;;5.15;;
19535;SDS011;9913;51.168;4.124;2023-06-14T15:08:18;5.70;;;2.45;;
19535;SDS011;9913;51.168;4.124;2023-06-14T15:10:46;3.60;;;2.17;;
19535;SDS011;9913;51.168;4.124;2023-06-14T15:13:15;2.72;;;2.03;;